createdAt,value
2022-11-26T00:01:45.967Z,5.74
2022-11-26T00:06:45.130Z,5.52
2022-11-26T00:11:42.573Z,5.39
2022-11-26T00:16:42.926Z,5.38
2022-11-26T00:21:40.823Z,5.20
2022-11-26T00:26:40.476Z,5.64
2022-11-26T00:31:39.950Z,5.65
2022-11-26T00:36:38.917Z,5.70
2022-11-26T00:41:38.966Z,5.32
2022-11-26T00:46:37.119Z,5.06
2022-11-26T00:51:36.536Z,4.95
2022-11-26T00:56:38.161Z,5.18
2022-11-26T01:01:37.884Z,5.08
2022-11-26T01:06:39.850Z,5.14
2022-11-26T01:11:38.897Z,5.10
2022-11-26T01:16:42.345Z,5.34
2022-11-26T01:21:40.837Z,5.38
2022-11-26T01:26:41.796Z,5.57
2022-11-26T01:31:41.875Z,5.08
2022-11-26T01:36:40.700Z,4.92
2022-11-26T01:41:47.576Z,5.09
2022-11-26T01:46:46.952Z,5.01
2022-11-26T01:51:45.279Z,5.09
2022-11-26T01:56:46.812Z,5.36
2022-11-26T02:01:46.749Z,5.36
2022-11-26T02:06:44.329Z,5.33
2022-11-26T02:11:41.863Z,5.53
2022-11-26T02:17:00.874Z,5.56
2022-11-26T02:22:06.484Z,5.61
2022-11-26T02:27:06.789Z,5.75
2022-11-26T02:32:09.189Z,5.64
2022-11-26T02:37:26.206Z,5.82
2022-11-26T02:42:23.725Z,5.48
2022-11-26T02:47:23.816Z,5.71
2022-11-26T02:52:27.581Z,5.65
2022-11-26T02:57:27.187Z,5.65
2022-11-26T03:02:27.012Z,5.67
2022-11-26T03:07:24.450Z,5.82
2022-11-26T03:12:23.257Z,5.69
2022-11-26T03:17:22.062Z,5.71
2022-11-26T03:22:22.630Z,5.50
2022-11-26T03:27:20.418Z,5.74
2022-11-26T03:32:18.174Z,5.70
2022-11-26T03:37:17.517Z,5.72
2022-11-26T03:42:18.088Z,5.72
2022-11-26T03:47:16.697Z,5.87
2022-11-26T03:52:16.401Z,5.82
2022-11-26T03:57:41.625Z,5.68
2022-11-26T04:02:40.122Z,5.66
2022-11-26T04:07:39.251Z,5.51
2022-11-26T04:12:38.556Z,5.49
2022-11-26T04:17:37.670Z,5.30
2022-11-26T04:22:35.891Z,5.52
2022-11-26T04:27:35.482Z,5.43
2022-11-26T04:32:40.070Z,5.49
2022-11-26T04:37:37.453Z,5.48
2022-11-26T04:42:37.026Z,5.41
2022-11-26T04:47:40.059Z,5.58
2022-11-26T04:52:40.955Z,5.51
2022-11-26T04:57:38.484Z,5.04
2022-11-26T05:02:36.961Z,4.87
2022-11-26T05:07:35.972Z,5.00
2022-11-26T05:12:34.844Z,4.99
2022-11-26T05:17:32.750Z,5.05
2022-11-26T05:22:31.568Z,4.95
2022-11-26T05:27:29.446Z,5.11
2022-11-26T05:32:28.802Z,5.16
2022-11-26T05:37:40.258Z,5.03
2022-11-26T05:42:40.370Z,4.99
2022-11-26T05:47:39.524Z,4.93
2022-11-26T05:52:38.939Z,4.88
2022-11-26T05:57:41.951Z,4.89
2022-11-26T06:02:40.468Z,4.63
2022-11-26T06:07:43.280Z,4.74
2022-11-26T06:12:53.570Z,4.84
2022-11-26T06:17:55.666Z,4.70
2022-11-26T06:22:55.720Z,4.44
2022-11-26T06:27:54.495Z,4.60
2022-11-26T06:32:53.295Z,4.65
2022-11-26T06:37:51.597Z,4.89
2022-11-26T06:42:53.311Z,4.63
2022-11-26T06:47:52.266Z,4.40
2022-11-26T06:52:54.013Z,4.31
2022-11-26T06:57:53.542Z,4.33
2022-11-26T07:02:55.961Z,4.54
2022-11-26T07:07:54.395Z,4.33
2022-11-26T07:12:53.661Z,4.45
2022-11-26T07:17:51.729Z,4.52
2022-11-26T07:22:49.147Z,4.62
2022-11-26T07:27:47.007Z,4.64
2022-11-26T07:32:47.149Z,4.91
2022-11-26T07:37:47.858Z,4.91
2022-11-26T07:42:51.794Z,4.84
2022-11-26T07:47:55.757Z,4.53
2022-11-26T07:52:53.211Z,4.45
2022-11-26T07:57:50.675Z,4.31
2022-11-26T08:02:48.836Z,4.38
2022-11-26T08:07:49.974Z,4.52
2022-11-26T08:12:49.075Z,4.66
2022-11-26T08:17:47.436Z,4.86
2022-11-26T08:22:46.897Z,4.91
2022-11-26T08:27:49.626Z,4.81
2022-11-26T08:32:51.660Z,5.02
2022-11-26T08:37:50.280Z,5.14
2022-11-26T08:42:49.715Z,5.14
2022-11-26T08:47:48.247Z,5.30
2022-11-26T08:52:46.107Z,5.41
2022-11-26T08:57:43.801Z,5.53
2022-11-26T09:02:42.578Z,5.59
2022-11-26T09:07:40.906Z,5.72
2022-11-26T09:12:42.645Z,5.78
2022-11-26T09:17:42.734Z,5.73
2022-11-26T09:22:42.315Z,5.90
2022-11-26T09:27:40.340Z,5.69
2022-11-26T09:32:39.418Z,5.50
2022-11-26T09:37:43.453Z,5.87
2022-11-26T09:42:54.673Z,5.86
2022-11-26T09:48:05.647Z,5.33
2022-11-26T09:53:28.046Z,5.99
2022-11-26T09:58:31.752Z,6.20
2022-11-26T10:03:38.990Z,6.42
2022-11-26T10:08:55.233Z,6.70
2022-11-26T10:14:16.294Z,6.52
2022-11-26T10:19:18.102Z,6.68
2022-11-26T10:24:24.774Z,6.47
2022-11-26T10:29:26.644Z,6.84
2022-11-26T10:34:43.014Z,6.82
2022-11-26T10:39:43.889Z,6.77
2022-11-26T10:44:41.792Z,6.82
2022-11-26T10:49:40.264Z,6.98
2022-11-26T10:54:41.237Z,7.16
2022-11-26T10:59:45.002Z,7.06
2022-11-26T11:04:44.275Z,7.21
2022-11-26T11:09:43.750Z,7.46
2022-11-26T11:14:43.682Z,7.45
2022-11-26T11:19:42.934Z,7.21
2022-11-26T11:24:43.091Z,7.11
2022-11-26T11:29:41.525Z,7.30
2022-11-26T11:34:42.757Z,7.20
2022-11-26T11:39:41.033Z,7.52
2022-11-26T11:44:46.595Z,7.51
2022-11-26T11:50:02.586Z,7.28
2022-11-26T11:55:09.429Z,7.33
2022-11-26T12:00:15.002Z,7.41
2022-11-26T12:05:32.627Z,7.29
2022-11-26T12:10:44.071Z,7.33
2022-11-26T12:15:54.372Z,7.19
2022-11-26T12:20:57.322Z,7.30
2022-11-26T12:25:57.481Z,7.34
2022-11-26T12:36:59.660Z,7.27
2022-11-26T12:42:06.901Z,7.04
2022-11-26T12:47:11.760Z,7.25
2022-11-26T12:52:13.195Z,7.32
2022-11-26T12:57:24.717Z,7.28
2022-11-26T13:02:34.507Z,7.70
2022-11-26T13:07:32.601Z,7.72
2022-11-26T13:12:39.498Z,7.39
2022-11-26T13:17:38.328Z,7.20
2022-11-26T13:22:46.507Z,7.14
2022-11-26T13:27:50.389Z,7.08
2022-11-26T13:33:07.646Z,6.91
2022-11-26T13:38:05.785Z,6.88
2022-11-26T13:43:17.142Z,6.80
2022-11-26T13:48:18.785Z,6.88
2022-11-26T13:53:25.070Z,6.86
2022-11-26T13:58:34.799Z,6.87
2022-11-26T14:03:48.732Z,6.35
2022-11-26T14:08:48.566Z,6.17
2022-11-26T14:13:48.482Z,6.08
2022-11-26T14:18:49.434Z,5.99
2022-11-26T14:24:00.928Z,5.69
2022-11-26T14:29:06.789Z,6.37
2022-11-26T14:34:20.577Z,5.84
2022-11-26T14:39:20.911Z,5.98
2022-11-26T14:44:19.475Z,6.27
2022-11-26T14:49:38.200Z,6.37
2022-11-26T14:55:28.035Z,6.06
2022-11-26T15:00:40.069Z,6.26
2022-11-26T15:06:07.441Z,6.34
2022-11-26T15:11:11.096Z,6.40
2022-11-26T15:16:27.779Z,6.49
2022-11-26T15:21:32.597Z,5.23
2022-11-26T15:26:34.367Z,5.03
2022-11-26T15:31:42.599Z,5.74
2022-11-26T15:42:11.202Z,4.99
2022-11-26T15:47:28.509Z,5.22
2022-11-26T15:53:36.160Z,5.89
2022-11-26T15:58:56.560Z,5.95
2022-11-26T16:10:28.114Z,5.26
2022-11-26T16:15:33.389Z,4.92
2022-11-26T16:20:33.477Z,4.80
2022-11-26T16:25:36.447Z,4.55
2022-11-26T16:30:36.927Z,4.95
2022-11-26T16:35:46.666Z,5.53
2022-11-26T16:40:51.970Z,5.77
2022-11-26T16:45:54.580Z,5.18
2022-11-26T16:50:59.044Z,5.08
2022-11-26T16:55:59.790Z,5.09
2022-11-26T17:01:04.691Z,4.58
2022-11-26T17:06:06.303Z,5.09
2022-11-26T17:11:05.266Z,5.08
2022-11-26T17:16:07.343Z,5.24
2022-11-26T17:21:12.734Z,5.29
2022-11-26T17:26:18.666Z,5.55
2022-11-26T17:31:19.320Z,4.99
2022-11-26T17:36:20.493Z,5.04
2022-11-26T17:41:21.795Z,5.44
2022-11-26T17:46:42.861Z,4.78
2022-11-26T17:51:57.711Z,3.90
2022-11-26T17:57:01.838Z,4.95
2022-11-26T18:02:04.764Z,5.58
2022-11-26T18:07:20.181Z,5.29
2022-11-26T18:12:29.896Z,3.94
2022-11-26T18:17:32.099Z,4.01
2022-11-26T18:22:33.834Z,4.51
2022-11-26T18:27:33.683Z,5.03
2022-11-26T18:32:31.796Z,5.24
2022-11-26T18:37:33.964Z,5.44
2022-11-26T18:42:37.508Z,5.16
2022-11-26T18:47:36.863Z,5.28
2022-11-26T18:52:35.412Z,5.04
2022-11-26T18:57:33.546Z,4.45
2022-11-26T19:02:35.165Z,4.90
2022-11-26T19:07:33.555Z,5.13
2022-11-26T19:12:32.461Z,5.18
2022-11-26T19:17:30.273Z,4.89
2022-11-26T19:22:32.305Z,4.83
2022-11-26T19:27:35.519Z,5.08
2022-11-26T19:32:38.296Z,4.46
2022-11-26T19:37:43.026Z,4.54
2022-11-26T19:42:44.146Z,4.79
2022-11-26T19:47:42.794Z,4.83
2022-11-26T19:52:42.870Z,4.79
2022-11-26T19:57:45.663Z,4.64
2022-11-26T20:02:43.095Z,4.99
2022-11-26T20:07:41.903Z,4.28
2022-11-26T20:12:44.713Z,4.35
2022-11-26T20:17:43.947Z,4.83
2022-11-26T20:22:43.822Z,4.76
2022-11-26T20:27:43.725Z,4.82
2022-11-26T20:32:45.993Z,4.58
2022-11-26T20:37:50.980Z,4.99
2022-11-26T20:42:49.606Z,5.03
2022-11-26T20:47:50.370Z,4.84
2022-11-26T20:52:48.782Z,5.04
2022-11-26T20:57:47.548Z,4.58
2022-11-26T21:02:53.076Z,4.42
2022-11-26T21:07:51.300Z,4.23
2022-11-26T21:12:50.515Z,4.00
2022-11-26T21:17:49.162Z,4.07
2022-11-26T21:22:47.827Z,3.94
2022-11-26T21:27:45.864Z,4.35
2022-11-26T21:32:44.548Z,3.91
2022-11-26T21:37:43.370Z,3.63
2022-11-26T21:42:41.837Z,4.36
2022-11-26T21:47:40.656Z,4.62
2022-11-26T21:52:40.754Z,4.84
2022-11-26T21:57:39.636Z,4.85
2022-11-26T22:02:38.565Z,4.56
2022-11-26T22:07:37.656Z,4.48
2022-11-26T22:12:37.189Z,4.46
2022-11-26T22:17:37.858Z,4.31
2022-11-26T22:22:39.945Z,4.19
2022-11-26T22:27:37.848Z,4.09
2022-11-26T22:32:38.393Z,4.29
2022-11-26T22:37:39.531Z,4.22
2022-11-26T22:42:40.442Z,3.95
2022-11-26T22:47:43.271Z,3.85
2022-11-26T22:52:42.001Z,4.02
2022-11-26T22:57:39.651Z,4.22
2022-11-26T23:02:41.762Z,3.87
2022-11-26T23:07:40.165Z,3.91
2022-11-26T23:12:39.163Z,3.64
2022-11-26T23:17:50.030Z,3.47
2022-11-26T23:22:51.393Z,3.40
2022-11-26T23:27:51.694Z,3.49
2022-11-26T23:32:50.162Z,3.49
2022-11-26T23:37:48.711Z,3.26
2022-11-26T23:42:46.306Z,3.14
2022-11-26T23:47:44.557Z,3.13
2022-11-26T23:52:43.909Z,3.00
2022-11-26T23:57:41.880Z,3.13
